Lyme Center, New Hampshire
Current Conditions -  °F | °C
As of 10:46 AM on Saturday 25 Oct 2014 (Local Time) from KLEB Reporting Station
Scattered Clouds Scattered Clouds  
Wind Chill: 40°   Ceiling: Unl
Heat Index: 43°   Visibility: 9mi
Dew Point: 39°   Wind: 5mph
Humidity: 86%   Direction: 50°NE
Pressure: 29.72"   Gusts: NA
Location:  43.8°N, 72.12°W
Report Text: KLEB 251446Z 05004KT 9SM SCT001 06/04 A2972 RMK AO2 T00610039
Loading
Personal Weather Stations






























Interactive Weather Map
Tropical Storm Tracking
New forecast layout! Learn more

10-Day Weather Forecast

Advertisements
Track Severe Weather on mobile